Air Navigation Services of Czech Republic  
Last data update:  23.06.2024 08:02:40 UTC česká verze
   METEO Page displayed:  23.06.2024 08:04:09 UTC  
vysvětlivky
METAR EDAC 230750Z 31005KT 280V350 CAVOK 19/13 Q1019=
METAR EDDB 230750Z AUTO 30012KT 9999 FEW026 20/12 Q1017 NOSIG=
METAR EDDC 230750Z AUTO 32007KT 280V360 9999 SCT022 SCT046 20/13 Q1018 NOSIG=
METAR EDDE 230750Z AUTO VRB02KT CAVOK 19/13 Q1019 NOSIG=
METAR EDDF 230750Z AUTO 03003KT 330V110 CAVOK 19/13 Q1019 NOSIG=
METAR EDDM 230750Z AUTO 27004KT 240V330 9999 OVC005 14/13 Q1019 BECMG BKN010=
METAR EDDN 230750Z AUTO VRB02KT 9999 OVC012 17/13 Q1019 BECMG BKN015=
METAR EDDP 230750Z AUTO 33008KT 300V360 9999 SCT026 BKN042 BKN049 19/13 Q1019 NOSIG=
METAR EDQM 230750Z 02003KT 310V100 9999 BKN019 BKN023 BKN028 16/13 Q1020=
METAR EPBY 230730Z 28011KT 250V310 9999 SCT018 BKN034 16/12 Q1013=
METAR EPGD 230730Z 28017KT 9999 -RADZ FEW006 BKN009 14/12 Q1010=
METAR EPKK 230730Z 29008KT 250V340 9999 FEW039 21/11 Q1015=
METAR EPKT 230730Z 29013KT 9999 FEW035 21/12 Q1015=
METAR EPLB 230730Z 30009KT 260V330 9999 FEW037 21/13 Q1013=
METAR EPLL 230730Z 27013KT 9999 FEW038 20/11 Q1014=
METAR EPMO 230730Z 25020KT CAVOK 20/09 Q1012=
METAR EPPO 230730Z 29011KT 9999 FEW020 19/10 Q1015=
METAR EPRZ 230730Z 31005KT 220V360 9999 SCT038 22/12 Q1014=
METAR EPWA 230730Z 29014G24KT 9999 FEW036 21/10 Q1012 NOSIG=
METAR EPWR 230730Z 30012KT 9999 FEW030 21/13 Q1016=
METAR LHBP 230800Z 05007KT 010V090 9999 SCT019 BKN040 22/18 Q1013 NOSIG=
METAR LHPR 230715Z AUTO 34016KT 310V030 CAVOK 22/13 Q1014 NOSIG=
METAR LHSM 230715Z AUTO 01011KT CAVOK 23/14 Q1014 NOSIG=
METAR LKBC 230800Z AUTO 26004KT 180V300 9999 FEW032 20/11 Q1018=
METAR LKCR 230800Z AUTO 32004KT 250V040 CAVOK 21/12 Q1017=
METAR LKCS 230800Z AUTO VRB03KT 9999 SCT048/// 20/13 Q1018=
METAR LKCV 230800Z 30005KT 250V360 CAVOK 21/13 Q1017 NOSIG RMK BLU BLU=
METAR LKKB 230800Z 03004KT 310V080 9999 FEW030 21/12 Q1018 NOSIG RMK BLU BLU=
METAR LKKU 230800Z 02013KT 9999 FEW047 22/10 Q1016=
METAR LKKV 230800Z 33004KT 280V090 9999 FEW020 BKN048 17/12 Q1019=
METAR LKLN 230800Z AUTO 06004KT 310V110 CAVOK 20/14 Q1018=
METAR LKMT 230800Z 02007KT 340V050 9999 FEW040 21/12 Q1016 NOSIG=
METAR LKNA 230800Z 34007KT 320V020 9999 FEW032 SCT130 20/12 Q1017 RMK BLACK=
METAR LKPD 230800Z 29005KT 250V020 9999 FEW030 SCT230 21/11 Q1017 NOSIG RMK BLU BLU=
METAR LKPJ 230800Z AUTO 01008KT 330V050 CAVOK 22/11 Q1016=
METAR LKPR 230800Z 35004KT 290V080 9999 FEW030 20/12 Q1018 NOSIG=
METAR LKTB 230800Z 35007KT 310V020 9999 FEW049 22/10 Q1016 NOSIG=
METAR LKTH 230730Z AUTO VRB03KT 9999 FEW035 19/11 Q1017=
METAR LKVO NIL
METAR LOWG 230750Z AUTO 34006KT 300V020 9999 FEW070 22/11 Q1015 NOSIG=
METAR LOWI 230750Z 04003KT 010V100 9999 FEW010 SCT030 BKN055 14/12 Q1019 NOSIG=
METAR LOWK 230750Z AUTO 01007KT 330V050 9999 FEW048 BKN060 21/12 Q1015 NOSIG=
METAR LOWL 230750Z AUTO 25006KT 230V300 9999 BKN018 17/13 Q1018 NOSIG=
METAR LOWS 230750Z AUTO 02003KT 330V090 9999 FEW013 BKN018 16/12 Q1019 NOSIG=
METAR LOWW 230750Z 34011KT 9999 FEW040 22/13 Q1016 NOSIG=
METAR LOXT 230750Z 30004KT 40KM FEW030CU 23/14 Q1016 RMK FEW=
METAR LOXZ 230750Z VRB01KT 9999 FEW040 SCT060 19/13 Q1017=
METAR LZIB 230800Z 34013KT 9999 FEW040 23/12 Q1015 NOSIG=
METAR LZKZ 230800Z 02017KT 9999 FEW025 22/13 Q1014 NOSIG=
METAR LZMC 230700Z 36008KT CAVOK 21/12 Q1016=
METAR LZPP 230730Z 01012KT 340V040 CAVOK 22/12 Q1014=
METAR LZSL 230700Z 00000KT 9999 FEW048 24/15 Q1014=
METAR LZTT 230800Z 08009KT 050V110 9999 BKN030 18/11 Q1016 NOSIG=
METAR LZZI 230730Z 07010KT 9999 FEW036 21/10 Q1015=